Hlavní strana
METAR-TAF:

METAR-TAF

Letiště :

Logan County Airport

Lincoln, Illinois, Spojené státy americké

zeměpisná šířka: 40-09-31N, zeměpisná délka: 089-20-06W, výška: 182 m

Aktuální stav počasí

Zpráva byla vytvořena před 30 minutami, v 23:15 UTC
Bezvětří
Teplota -1°C
Vlhkost vzduchu 93%
Tlak 1016 hPa
Viditelnost: 11.3 km
Polojasno ve výšce 6000 ft
Oblačno až skoro zataženo ve výšce 7000 ft

METAR: KAAA 152315Z AUTO 00000KT 7SM SCT060 BKN070 M01/M02 A3001 RMK AO2 T10091025

Čas: 17:45 (23:45 UTC)


TAF: chybějící

Stav a předpovědi počasí z více než 4 000 letišť (zprávy METAR a TAF).

Červené a žluté tečky na mapě představují dostupné meteorologické stanice.

Když kurzor umístíte na tečku, zobrazí se název stanice.

Pak kliknutím zobrazíte stav a předpověď počasí.

Chcete-li změnit mapu, kliknutím na zelené tlačítko se znaménkem +mapu přiblížíte, kliknutím na zelené tlačítko se znaménkem – mapu oddálíte a kliknutím na zelené šipky přejdete na sousední mapy.


METAR-TAF: